Time;durP1;ratioP1;P1;durP2;ratioP2;P2;SDS_P1;SDS_P2;PMS_P1;PMS_P2;Temp;Humidity;BMP_temperature;BMP_pressure;BME280_temperature;BME280_humidity;BME280_pressure;Samples;Min_cycle;Max_cycle;Signal;HPM_P1;HPM_P2
2022/11/17 00:00:38;;;;;;;94.17;51.43;;;;;;;11.78;100.00;98260.59;5049899;28;20201;-60
2022/11/17 00:03:05;;;;;;;98.50;51.80;;;;;;;11.72;100.00;98264.34;5049847;28;20211;-60
2022/11/17 00:05:35;;;;;;;89.33;50.37;;;;;;;11.58;100.00;98253.81;5049944;28;20558;-56
2022/11/17 00:08:02;;;;;;;96.17;49.30;;;;;;;11.68;100.00;98248.97;5050044;28;20201;-56
2022/11/17 00:10:29;;;;;;;100.53;53.87;;;;;;;11.68;100.00;98247.22;5049828;28;20196;-60
2022/11/17 00:15:43;;;;;;;98.23;53.33;;;;;;;11.44;100.00;98249.34;5049568;28;20282;-60
2022/11/17 00:23:48;;;;;;;96.00;51.57;;;;;;;11.51;100.00;98255.88;5049651;28;20195;-59
2022/11/17 00:26:16;;;;;;;90.70;51.20;;;;;;;11.53;100.00;98255.81;5049653;28;20618;-60
2022/11/17 00:28:44;;;;;;;95.50;50.97;;;;;;;11.56;100.00;98245.25;5049437;28;20403;-60
2022/11/17 00:34:05;;;;;;;94.70;50.60;;;;;;;11.52;100.00;98254.97;5049336;28;20220;-54
2022/11/17 00:36:36;;;;;;;96.97;51.50;;;;;;;11.46;100.00;98250.13;5048891;28;20657;-56
2022/11/17 00:39:03;;;;;;;89.17;49.87;;;;;;;11.52;100.00;98254.13;5048989;28;20232;-55
2022/11/17 00:41:30;;;;;;;84.93;49.57;;;;;;;11.50;100.00;98259.44;5049662;28;20560;-55
2022/11/17 00:43:57;;;;;;;95.53;50.27;;;;;;;11.48;100.00;98257.81;5049543;28;20632;-55
2022/11/17 00:46:24;;;;;;;90.77;49.70;;;;;;;11.52;100.00;98252.38;5049431;28;20219;-60
2022/11/17 00:48:51;;;;;;;92.60;48.23;;;;;;;11.60;100.00;98252.00;5049115;28;20238;-55
2022/11/17 00:51:19;;;;;;;82.57;47.90;;;;;;;11.61;100.00;98246.72;5049173;28;20283;-55
2022/11/17 00:53:48;;;;;;;88.17;48.07;;;;;;;11.62;100.00;98250.97;5049072;28;20602;-55
2022/11/17 00:56:15;;;;;;;84.33;48.37;;;;;;;11.68;100.00;98248.97;5049115;28;20291;-56
2022/11/17 00:58:42;;;;;;;83.77;48.57;;;;;;;11.71;100.00;98248.81;5049081;28;20201;-55
2022/11/17 01:01:09;;;;;;;92.07;49.40;;;;;;;11.75;100.00;98260.72;5049053;28;20287;-56
2022/11/17 01:03:36;;;;;;;87.50;48.07;;;;;;;11.68;100.00;98246.38;5048985;28;20216;-55
2022/11/17 01:06:05;;;;;;;81.40;47.13;;;;;;;11.74;100.00;98253.84;5051027;28;20192;-56
2022/11/17 01:08:33;;;;;;;78.83;46.73;;;;;;;11.78;100.00;98245.81;5053309;28;20198;-55
2022/11/17 01:11:07;;;;;;;78.93;47.37;;;;;;;11.87;100.00;98249.69;5053461;28;20203;-55
2022/11/17 01:13:34;;;;;;;80.77;47.47;;;;;;;11.86;100.00;98237.59;5053050;28;20200;-55
2022/11/17 01:16:03;;;;;;;83.40;48.37;;;;;;;11.84;100.00;98247.28;5053016;28;20263;-59
2022/11/17 01:18:30;;;;;;;84.30;48.30;;;;;;;11.84;100.00;98240.31;5053094;28;20222;-55
2022/11/17 01:21:03;;;;;;;87.23;47.40;;;;;;;11.75;100.00;98226.91;5052859;28;20200;-55
2022/11/17 01:23:31;;;;;;;83.90;46.47;;;;;;;11.84;100.00;98239.47;5053092;28;20578;-55
2022/11/17 01:26:02;;;;;;;81.27;48.30;;;;;;;11.85;100.00;98235.97;5052930;28;20207;-59
2022/11/17 01:28:30;;;;;;;81.40;48.50;;;;;;;11.83;100.00;98223.03;5052722;28;20201;-55
2022/11/17 01:31:01;;;;;;;93.97;51.10;;;;;;;11.73;100.00;98215.78;5052690;28;20204;-56
2022/11/17 01:33:28;;;;;;;90.37;50.33;;;;;;;11.67;100.00;98210.91;5052930;28;20279;-56
2022/11/17 01:35:55;;;;;;;89.10;52.80;;;;;;;11.58;100.00;98207.88;5052822;28;20251;-56
2022/11/17 01:38:22;;;;;;;97.60;53.23;;;;;;;11.55;100.00;98208.03;5052528;28;20193;-55
2022/11/17 01:40:49;;;;;;;97.90;51.60;;;;;;;11.68;100.00;98208.22;5052549;28;20207;-60
2022/11/17 01:43:16;;;;;;;96.23;52.80;;;;;;;11.59;100.00;98212.16;5052613;28;20594;-55
2022/11/17 01:45:45;;;;;;;96.83;52.47;;;;;;;11.56;100.00;98203.69;5052157;28;20722;-56
2022/11/17 01:48:14;;;;;;;97.83;55.73;;;;;;;11.57;100.00;98210.56;5052513;28;20644;-58
2022/11/17 01:50:48;;;;;;;94.70;54.03;;;;;;;11.58;100.00;98213.09;5052333;28;20204;-55
2022/11/17 01:53:19;;;;;;;95.50;53.07;;;;;;;11.57;100.00;98206.22;5052533;28;20266;-59
2022/11/17 01:55:51;;;;;;;98.23;54.07;;;;;;;11.48;100.00;98219.69;5052195;28;20231;-55
2022/11/17 01:58:21;;;;;;;101.70;54.20;;;;;;;11.45;100.00;98212.06;5052273;28;20193;-56
2022/11/17 02:00:49;;;;;;;97.10;53.67;;;;;;;11.45;100.00;98217.25;5052472;28;20656;-55
2022/11/17 02:03:17;;;;;;;94.23;53.10;;;;;;;11.42;100.00;98220.00;5052192;28;20193;-56
2022/11/17 02:05:51;;;;;;;91.47;50.83;;;;;;;11.45;100.00;98203.41;5052045;28;20200;-55
2022/11/17 02:08:20;;;;;;;92.00;49.97;;;;;;;11.42;100.00;98190.59;5052088;28;20292;-55
2022/11/17 02:10:49;;;;;;;85.37;48.53;;;;;;;11.42;100.00;98191.44;5052012;28;20193;-55
2022/11/17 02:13:16;;;;;;;82.37;48.03;;;;;;;11.41;100.00;98200.13;5052108;28;20583;-59
2022/11/17 02:15:43;;;;;;;85.10;48.33;;;;;;;11.45;100.00;98212.06;5051599;28;20318;-59
2022/11/17 02:18:11;;;;;;;77.30;45.27;;;;;;;11.42;100.00;98200.97;5051265;28;20192;-60
2022/11/17 02:20:49;;;;;;;81.80;47.60;;;;;;;11.46;100.00;98198.16;5051714;28;20201;-56
2022/11/17 02:23:46;;;;;;;78.13;46.63;;;;;;;11.44;100.00;98194.78;5051824;28;20204;-60
2022/11/17 02:26:32;;;;;;;76.07;44.37;;;;;;;11.43;100.00;98185.31;5052219;28;20196;-59
2022/11/17 02:29:07;;;;;;;84.53;46.03;;;;;;;11.43;100.00;98181.88;5051702;28;20207;-55
2022/11/17 02:31:40;;;;;;;80.03;44.57;;;;;;;11.42;100.00;98186.22;5051753;28;20196;-55
2022/11/17 02:34:19;;;;;;;89.33;46.33;;;;;;;11.37;100.00;98180.47;5051558;28;20200;-60
2022/11/17 02:36:55;;;;;;;80.53;47.47;;;;;;;11.34;100.00;98175.41;5051785;28;20196;-60
2022/11/17 02:39:26;;;;;;;80.53;45.90;;;;;;;11.28;100.00;98179.19;5051269;28;20208;-56
2022/11/17 02:41:58;;;;;;;85.57;47.83;;;;;;;11.17;100.00;98175.50;5051281;28;20200;-55
2022/11/17 02:44:35;;;;;;;87.57;48.40;;;;;;;11.06;100.00;98181.22;5051481;28;20215;-55
2022/11/17 02:47:08;;;;;;;82.40;45.57;;;;;;;10.96;100.00;98179.16;5051507;28;20237;-55
2022/11/17 02:49:38;;;;;;;79.87;45.70;;;;;;;10.88;100.00;98177.81;5051274;28;20234;-55
2022/11/17 02:52:08;;;;;;;85.77;48.63;;;;;;;10.91;100.00;98164.69;5051301;28;20200;-59
2022/11/17 02:54:35;;;;;;;87.90;47.90;;;;;;;10.94;100.00;98152.47;5051271;28;20307;-56
2022/11/17 02:57:02;;;;;;;91.33;49.10;;;;;;;10.93;100.00;98149.03;5051380;28;20629;-56
2022/11/17 02:59:34;;;;;;;89.23;48.70;;;;;;;10.88;100.00;98158.81;5051114;28;20196;-56
2022/11/17 03:02:29;;;;;;;89.17;48.37;;;;;;;10.95;100.00;98148.97;5051408;28;20279;-56
2022/11/17 03:05:09;;;;;;;86.70;48.00;;;;;;;10.87;100.00;98145.00;5049621;28;20193;-56
2022/11/17 03:07:48;;;;;;;89.83;47.90;;;;;;;10.77;100.00;98137.75;5051126;28;20196;-56
2022/11/17 03:10:19;;;;;;;89.83;48.47;;;;;;;10.77;100.00;98145.53;5051144;28;20192;-56
2022/11/17 03:12:52;;;;;;;84.17;47.57;;;;;;;10.70;100.00;98151.97;5050823;28;20200;-61
2022/11/17 03:15:28;;;;;;;85.50;48.27;;;;;;;10.76;100.00;98141.28;5050694;28;20747;-60
2022/11/17 03:18:04;;;;;;;85.83;48.50;;;;;;;10.64;100.00;98129.75;5050957;28;20206;-60
2022/11/17 03:20:39;;;;;;;87.77;47.47;;;;;;;10.66;100.00;98146.09;5050794;28;20196;-60
2022/11/17 03:23:11;;;;;;;96.23;50.00;;;;;;;10.77;100.00;98150.75;5050834;28;20200;-59
2022/11/17 03:25:39;;;;;;;88.50;47.47;;;;;;;10.77;100.00;98161.97;5050726;28;20201;-59
2022/11/17 03:28:09;;;;;;;92.53;48.20;;;;;;;10.77;100.00;98159.38;5050518;28;20197;-59
2022/11/17 03:30:41;;;;;;;88.20;49.30;;;;;;;10.81;100.00;98154.88;5050099;28;20673;-58
2022/11/17 03:33:14;;;;;;;95.33;49.70;;;;;;;10.82;100.00;98154.78;5050781;28;20279;-60
2022/11/17 03:35:45;;;;;;;89.13;49.90;;;;;;;10.84;100.00;98155.53;5050276;28;20224;-60
2022/11/17 03:38:14;;;;;;;93.00;48.30;;;;;;;10.76;100.00;98160.28;5050455;28;20698;-56
2022/11/17 03:40:47;;;;;;;94.30;51.10;;;;;;;10.70;100.00;98164.94;5050277;28;20197;-57
2022/11/17 03:43:17;;;;;;;96.17;52.17;;;;;;;10.71;100.00;98164.03;5050373;28;20233;-56
2022/11/17 03:45:49;;;;;;;95.03;50.87;;;;;;;10.77;100.00;98161.97;5050139;28;20192;-56
2022/11/17 03:48:21;;;;;;;93.10;50.10;;;;;;;10.72;100.00;98153.56;5050053;28;20199;-56
2022/11/17 03:50:54;;;;;;;88.17;49.67;;;;;;;10.69;100.00;98135.56;5050028;28;20216;-55
2022/11/17 03:53:22;;;;;;;93.30;51.83;;;;;;;10.67;100.00;98146.94;5050028;28;20212;-56
2022/11/17 03:55:56;;;;;;;98.93;50.90;;;;;;;10.66;100.00;98156.47;5050147;28;20600;-58
2022/11/17 03:58:29;;;;;;;89.50;50.77;;;;;;;10.65;100.00;98167.78;5050166;28;20570;-59
2022/11/17 04:01:01;;;;;;;89.40;51.43;;;;;;;10.57;100.00;98156.09;5049642;28;20200;-57
2022/11/17 04:03:30;;;;;;;94.67;52.00;;;;;;;10.58;100.00;98160.38;5049683;28;20596;-59
2022/11/17 04:05:57;;;;;;;96.70;52.03;;;;;;;10.54;100.00;98149.31;5050054;28;20584;-60
2022/11/17 04:08:28;;;;;;;87.60;48.87;;;;;;;10.54;100.00;98154.50;5049874;28;20590;-60
2022/11/17 04:16:25;;;;;;;102.70;52.03;;;;;;;10.60;100.00;98130.84;5049573;28;20281;-59
2022/11/17 04:18:52;;;;;;;93.53;51.00;;;;;;;10.53;100.00;98127.72;5049816;28;20196;-59
2022/11/17 04:21:19;;;;;;;102.43;53.93;;;;;;;10.57;100.00;98130.16;5049549;28;20226;-60
2022/11/17 04:23:46;;;;;;;98.77;53.23;;;;;;;10.53;100.00;98132.91;5049657;28;20733;-60
2022/11/17 04:28:57;;;;;;;107.57;54.37;;;;;;;10.54;100.00;98131.16;5049175;28;20293;-60
2022/11/17 04:31:27;;;;;;;99.37;54.43;;;;;;;10.52;100.00;98127.78;5034064;28;20754;-59
2022/11/17 04:33:55;;;;;;;105.97;52.80;;;;;;;10.46;100.00;98116.00;5048848;28;20228;-60
2022/11/17 04:36:24;;;;;;;92.13;53.03;;;;;;;10.61;100.00;98135.09;5048622;28;20621;-59
2022/11/17 04:38:53;;;;;;;102.40;54.40;;;;;;;10.60;100.00;98122.22;5048260;28;20223;-59
2022/11/17 04:44:07;;;;;;;101.93;53.83;;;;;;;10.61;100.00;98100.56;5028370;28;20617;-59
2022/11/17 04:46:37;;;;;;;101.43;53.27;;;;;;;10.61;100.00;98088.41;5054189;28;20304;-58
2022/11/17 04:49:04;;;;;;;108.27;54.30;;;;;;;10.58;100.00;98082.56;5055542;28;20631;-59
2022/11/17 04:51:33;;;;;;;102.70;55.20;;;;;;;10.63;100.00;98089.16;5052469;28;20230;-58
2022/11/17 04:54:01;;;;;;;101.67;56.20;;;;;;;10.64;100.00;98082.22;5055737;28;20204;-58
2022/11/17 04:56:29;;;;;;;103.07;58.33;;;;;;;10.69;100.00;98088.03;5054425;28;20222;-55
2022/11/17 04:58:56;;;;;;;104.47;55.03;;;;;;;10.70;100.00;98087.09;5052350;28;20211;-55
2022/11/17 05:01:25;;;;;;;104.20;54.37;;;;;;;10.73;100.00;98081.72;5057068;28;20683;-54
2022/11/17 05:03:55;;;;;;;104.47;55.70;;;;;;;10.70;100.00;98067.19;5054863;28;20735;-55
2022/11/17 05:06:25;;;;;;;107.07;56.50;;;;;;;10.69;100.00;98078.47;5047228;28;20235;-55
2022/11/17 05:08:54;;;;;;;100.73;55.33;;;;;;;10.75;100.00;98074.72;5047480;28;20192;-55
2022/11/17 05:14:07;;;;;;;103.70;55.20;;;;;;;10.82;100.00;98084.72;5047455;28;20636;-54
2022/11/17 05:19:23;;;;;;;98.30;54.63;;;;;;;10.86;100.00;98081.03;5068166;28;20584;-55
2022/11/17 05:21:50;;;;;;;98.43;53.50;;;;;;;10.86;100.00;98087.97;5068237;28;20199;-55
2022/11/17 05:24:17;;;;;;;101.47;54.17;;;;;;;10.78;100.00;98080.59;5066467;28;20214;-55
2022/11/17 05:26:46;;;;;;;103.30;56.10;;;;;;;10.67;100.00;98084.66;5046761;28;20197;-55
2022/11/17 05:29:14;;;;;;;101.10;55.93;;;;;;;10.69;100.00;98085.44;5047652;28;20211;-55
2022/11/17 05:31:42;;;;;;;98.53;55.67;;;;;;;10.73;100.00;98081.72;5048469;28;20588;-55
2022/11/17 05:34:12;;;;;;;108.63;56.70;;;;;;;10.78;100.00;98101.34;5048984;28;20207;-54
2022/11/17 05:36:41;;;;;;;112.07;56.17;;;;;;;10.79;100.00;98102.19;5048841;28;20235;-60
2022/11/17 05:39:09;;;;;;;107.03;55.97;;;;;;;10.83;100.00;98103.72;5048722;28;20201;-59
2022/11/17 05:41:37;;;;;;;98.73;55.67;;;;;;;10.72;100.00;98096.47;5051528;28;20687;-59
2022/11/17 05:44:05;;;;;;;107.13;54.70;;;;;;;10.86;100.00;98111.31;5055502;28;20189;-59
2022/11/17 05:46:32;;;;;;;104.73;57.00;;;;;;;10.89;100.00;98114.59;5055635;28;20195;-59
2022/11/17 05:48:59;;;;;;;100.10;54.93;;;;;;;10.94;100.00;98106.59;5056530;28;20226;-60
2022/11/17 05:51:26;;;;;;;104.97;55.27;;;;;;;10.94;100.00;98101.41;5055827;28;20699;-59
2022/11/17 05:53:55;;;;;;;100.07;55.03;;;;;;;10.98;100.00;98113.28;5057737;28;20280;-60
2022/11/17 05:56:35;;;;;;;103.03;55.97;;;;;;;11.12;100.00;98116.00;5059124;28;20222;-60
2022/11/17 05:59:12;;;;;;;98.20;56.40;;;;;;;11.20;100.00;98111.22;5064007;28;20717;-55
2022/11/17 06:01:44;;;;;;;101.60;54.80;;;;;;;11.20;100.00;98120.78;5070965;28;20203;-55
2022/11/17 06:04:11;;;;;;;103.63;56.53;;;;;;;11.22;100.00;98121.53;5071062;28;20254;-55
2022/11/17 06:06:38;;;;;;;97.97;55.57;;;;;;;11.26;100.00;98118.69;5071681;28;20588;-55
2022/11/17 06:09:06;;;;;;;107.27;57.13;;;;;;;11.32;100.00;98116.66;5071643;28;20660;-55
2022/11/17 06:11:33;;;;;;;103.23;56.77;;;;;;;11.34;100.00;98120.03;5070995;28;20286;-56
2022/11/17 06:14:00;;;;;;;104.13;57.17;;;;;;;11.41;100.00;98116.16;5071331;28;20679;-55
2022/11/17 06:16:30;;;;;;;95.63;54.60;;;;;;;11.46;100.00;98119.38;5070967;28;20232;-55
2022/11/17 06:19:03;;;;;;;94.80;53.80;;;;;;;11.56;100.00;98117.94;5071100;28;20659;-55
2022/11/17 06:21:31;;;;;;;91.03;53.47;;;;;;;11.56;100.00;98123.97;5071216;28;20207;-59
2022/11/17 06:23:59;;;;;;;92.33;52.67;;;;;;;11.41;100.00;98130.00;5071388;28;20298;-59
2022/11/17 06:26:28;;;;;;;89.10;50.70;;;;;;;11.16;100.00;98132.25;5070856;28;20203;-59
2022/11/17 06:28:56;;;;;;;81.53;49.57;;;;;;;11.06;100.00;98125.88;5070860;28;20200;-60
2022/11/17 06:31:25;;;;;;;88.70;50.73;;;;;;;11.05;100.00;98124.19;5071246;28;20204;-60
2022/11/17 06:33:52;;;;;;;90.20;51.13;;;;;;;11.02;100.00;98122.59;5071060;28;20200;-60
2022/11/17 06:36:20;;;;;;;93.30;51.20;;;;;;;11.05;100.00;98124.19;5070756;28;20223;-54
2022/11/17 06:38:46;;;;;;;91.63;51.03;;;;;;;10.96;100.00;98125.50;5070963;28;20195;-56
2022/11/17 06:41:13;;;;;;;90.83;51.30;;;;;;;10.88;100.00;98127.66;5070725;28;20291;-55
2022/11/17 06:43:42;;;;;;;100.20;53.67;;;;;;;10.87;100.00;98123.38;5070600;28;20687;-55
2022/11/17 06:46:09;;;;;;;102.00;54.37;;;;;;;10.78;100.00;98122.13;5070646;28;20202;-55
2022/11/17 06:48:36;;;;;;;99.33;54.77;;;;;;;10.73;100.00;98123.25;5070592;28;20232;-56
2022/11/17 06:51:04;;;;;;;110.60;55.60;;;;;;;10.74;100.00;98110.22;5070514;28;20239;-55
2022/11/17 06:53:32;;;;;;;106.70;55.20;;;;;;;10.86;100.00;98103.53;5070329;28;20202;-55
2022/11/17 06:56:04;;;;;;;105.33;54.00;;;;;;;11.00;100.00;98097.63;5070280;28;20224;-54
2022/11/17 06:58:32;;;;;;;103.40;54.10;;;;;;;10.92;100.00;98072.09;5070107;28;20590;-54
2022/11/17 07:01:06;;;;;;;111.40;60.03;;;;;;;11.07;100.00;98078.19;5070509;28;20531;-55
2022/11/17 07:03:35;;;;;;;126.10;72.60;;;;;;;11.08;100.00;98048.72;5059507;28;20231;-55
2022/11/17 07:06:02;;;;;;;109.00;60.17;;;;;;;11.13;100.00;98050.16;5049484;28;20227;-56
2022/11/17 07:08:30;;;;;;;108.40;58.60;;;;;;;11.18;100.00;98053.31;5049465;28;20240;-60
2022/11/17 07:11:02;;;;;;;104.00;58.17;;;;;;;11.12;100.00;98058.88;5049475;28;20866;-59
2022/11/17 07:13:29;;;;;;;103.40;58.47;;;;;;;11.17;100.00;98054.25;5049583;28;20252;-60
2022/11/17 07:16:02;;;;;;;107.10;57.53;;;;;;;11.29;100.00;98063.97;5050481;28;20220;-55
2022/11/17 07:18:30;;;;;;;111.63;59.67;;;;;;;11.33;100.00;98067.25;5049912;28;20192;-56
2022/11/17 07:21:02;;;;;;;118.63;61.07;;;;;;;11.34;100.00;98066.31;5050854;28;20287;-55
2022/11/17 07:23:29;;;;;;;113.83;60.70;;;;;;;11.33;100.00;98072.44;5050513;28;20254;-54
2022/11/17 07:25:56;;;;;;;104.83;57.23;;;;;;;11.39;100.00;98074.72;5050709;28;20288;-55
2022/11/17 07:28:23;;;;;;;104.93;57.43;;;;;;;11.48;100.00;98079.41;5050754;28;20629;-55
2022/11/17 07:30:49;;;;;;;101.57;55.33;;;;;;;11.49;100.00;98075.88;5050725;28;20592;-56
2022/11/17 07:33:16;;;;;;;100.37;56.20;;;;;;;11.49;100.00;98073.28;5050572;28;20691;-55
2022/11/17 07:35:45;;;;;;;99.80;54.57;;;;;;;11.49;100.00;98073.28;5050446;28;20311;-54
2022/11/17 07:38:12;;;;;;;95.67;54.00;;;;;;;11.52;100.00;98080.88;5050562;28;20726;-55
2022/11/17 07:40:40;;;;;;;101.67;54.00;;;;;;;11.55;100.00;98090.28;5050532;28;20197;-60
2022/11/17 07:43:07;;;;;;;99.47;53.10;;;;;;;11.53;100.00;98099.91;5050409;28;20569;-59
2022/11/17 07:45:35;;;;;;;101.83;53.67;;;;;;;11.50;100.00;98098.34;5050402;28;20197;-60
2022/11/17 07:48:03;;;;;;;102.93;53.77;;;;;;;11.57;100.00;98091.88;5050213;28;20207;-59
2022/11/17 07:50:30;;;;;;;99.73;55.27;;;;;;;11.58;100.00;98093.56;5049819;28;20324;-60
2022/11/17 07:52:59;;;;;;;96.93;53.90;;;;;;;11.53;100.00;98087.75;5050326;28;20650;-55
2022/11/17 07:55:26;;;;;;;105.47;54.73;;;;;;;11.61;100.00;98103.78;5050285;28;20228;-55
2022/11/17 07:57:57;;;;;;;101.33;54.13;;;;;;;11.67;100.00;98096.56;5049977;28;20231;-56
2022/11/17 08:00:24;;;;;;;93.67;53.10;;;;;;;11.79;100.00;98095.91;5050018;28;20236;-56
2022/11/17 08:02:51;;;;;;;98.43;53.33;;;;;;;11.81;100.00;98091.47;5050037;28;20197;-56
2022/11/17 08:05:19;;;;;;;90.33;50.77;;;;;;;11.80;100.00;98095.81;5049899;28;20258;-56
2022/11/17 08:07:47;;;;;;;99.53;52.87;;;;;;;11.70;100.00;98102.44;5049862;28;20235;-56
2022/11/17 08:10:15;;;;;;;97.17;53.60;;;;;;;11.64;100.00;98107.94;5046517;28;22506;-56
2022/11/17 08:12:42;;;;;;;100.20;52.63;;;;;;;11.64;100.00;98107.94;5049142;28;20250;-56
2022/11/17 08:15:09;;;;;;;101.03;52.03;;;;;;;11.74;100.00;98110.91;5047087;28;20287;-55
2022/11/17 08:17:36;;;;;;;99.53;54.47;;;;;;;11.70;100.00;98101.59;5048660;28;20227;-59
2022/11/17 08:20:04;;;;;;;133.23;76.87;;;;;;;11.73;100.00;98117.03;5049805;28;20230;-58
2022/11/17 08:22:31;;;;;;;110.00;61.03;;;;;;;11.74;100.00;98119.50;5045122;28;20213;-57
2022/11/17 08:24:58;;;;;;;98.10;54.23;;;;;;;11.86;100.00;98129.25;5056305;28;20220;-58
2022/11/17 08:27:26;;;;;;;109.53;58.17;;;;;;;11.76;100.00;98117.69;5061699;28;20588;-58
2022/11/17 08:29:53;;;;;;;103.23;56.20;;;;;;;11.82;100.00;98132.13;5049338;28;20205;-58
2022/11/17 08:32:21;;;;;;;106.77;56.20;;;;;;;11.74;100.00;98140.31;5048684;28;20204;-60
2022/11/17 08:34:48;;;;;;;112.45;67.43;;;;;;;11.61;100.00;98145.38;5048388;28;21006;-58
2022/11/17 08:37:15;;;;;;;214.73;120.63;;;;;;;11.60;100.00;98150.63;5049681;28;20238;-58
2022/11/17 08:39:41;;;;;;;189.80;101.77;;;;;;;11.61;100.00;98154.91;5049544;28;20212;-58
2022/11/17 08:42:08;;;;;;;120.97;65.57;;;;;;;11.64;100.00;98165.97;5049444;28;20206;-57
2022/11/17 08:44:37;;;;;;;105.13;58.40;;;;;;;11.52;100.00;98179.63;5049656;28;20665;-58
2022/11/17 08:47:03;;;;;;;138.00;73.40;;;;;;;11.51;100.00;98198.72;5049403;28;20197;-54
2022/11/17 08:49:30;;;;;;;130.87;65.33;;;;;;;11.40;100.00;98208.03;5049231;28;20232;-54
2022/11/17 08:51:57;;;;;;;118.67;60.77;;;;;;;11.39;100.00;98233.19;5049636;28;20687;-55
2022/11/17 08:54:24;;;;;;;116.53;58.27;;;;;;;11.38;100.00;98239.28;5048887;28;20569;-58
2022/11/17 08:56:56;;;;;;;112.67;57.63;;;;;;;11.42;100.00;98245.16;5035959;28;20231;-57
2022/11/17 08:59:23;;;;;;;105.00;54.80;;;;;;;11.39;100.00;98253.97;5049111;28;20196;-58
2022/11/17 09:01:51;;;;;;;98.50;54.67;;;;;;;11.41;100.00;98262.50;5048147;28;20200;-59
2022/11/17 09:04:19;;;;;;;89.60;51.83;;;;;;;11.52;100.00;98277.50;5049386;28;20658;-58
2022/11/17 09:06:46;;;;;;;90.03;49.37;;;;;;;11.55;100.00;98274.75;5049324;28;20199;-57
2022/11/17 09:09:12;;;;;;;85.20;49.83;;;;;;;11.56;100.00;98272.09;5049758;28;20205;-57
2022/11/17 09:11:39;;;;;;;87.60;50.23;;;;;;;11.61;100.00;98272.69;5048952;28;20204;-57
2022/11/17 09:14:07;;;;;;;88.57;51.03;;;;;;;11.66;100.00;98267.25;5049106;28;20207;-58
2022/11/17 09:16:34;;;;;;;84.37;48.27;;;;;;;11.64;100.00;98267.31;5049028;28;20228;-58
2022/11/17 09:19:02;;;;;;;108.90;61.70;;;;;;;11.59;100.00;98271.09;5049258;28;20592;-58
2022/11/17 09:21:30;;;;;;;87.47;50.90;;;;;;;11.64;100.00;98262.13;5049040;28;20225;-58
2022/11/17 09:23:57;;;;;;;80.10;45.93;;;;;;;11.61;100.00;98248.47;5049049;28;20615;-58
2022/11/17 09:26:24;;;;;;;77.63;45.97;;;;;;;11.63;100.00;98252.66;5043953;28;20213;-57
2022/11/17 09:28:51;;;;;;;80.57;45.10;;;;;;;11.68;100.00;98254.16;5032886;28;20227;-59
2022/11/17 09:31:20;;;;;;;72.97;43.03;;;;;;;11.71;100.00;98238.41;5039417;28;20307;-58
2022/11/17 09:33:47;;;;;;;77.43;45.17;;;;;;;11.74;100.00;98222.66;5051441;28;20287;-57
2022/11/17 09:36:16;;;;;;;77.80;44.23;;;;;;;11.93;100.00;98198.22;5052240;28;20202;-57
2022/11/17 09:38:43;;;;;;;77.73;46.00;;;;;;;11.90;100.00;98176.72;5052715;28;20211;-58
2022/11/17 09:41:22;;;;;;;83.07;46.37;;;;;;;11.84;100.00;98161.50;5052679;28;20266;-58
2022/11/17 09:43:54;;;;;;;87.10;50.63;;;;;;;11.98;100.00;98153.72;5052826;28;20206;-58
2022/11/17 09:46:27;;;;;;;93.27;54.23;;;;;;;12.06;100.00;98146.34;5052863;28;20288;-57
2022/11/17 09:49:04;;;;;;;81.83;47.30;;;;;;;12.09;100.00;98111.50;5052587;28;20638;-58
2022/11/17 09:51:36;;;;;;;81.70;45.57;;;;;;;11.96;100.00;98109.63;5052389;28;20200;-57
2022/11/17 09:54:10;;;;;;;92.20;51.60;;;;;;;11.95;100.00;98112.31;5052466;28;20207;-57
2022/11/17 09:56:39;;;;;;;98.67;56.47;;;;;;;12.03;100.00;98101.47;5052564;28;20695;-57
2022/11/17 09:59:11;;;;;;;78.00;46.63;;;;;;;12.11;100.00;98105.31;5052538;28;20208;-57
2022/11/17 10:01:39;;;;;;;72.30;42.97;;;;;;;12.07;100.00;98098.63;5052296;28;20204;-57
2022/11/17 10:04:11;;;;;;;77.37;43.33;;;;;;;12.08;100.00;98099.44;5052409;28;20204;-57
2022/11/17 10:06:42;;;;;;;73.23;41.97;;;;;;;12.27;100.00;98108.72;5052453;28;20642;-55
2022/11/17 10:09:19;;;;;;;68.77;41.50;;;;;;;12.52;100.00;98096.88;5052370;28;20228;-54
2022/11/17 10:11:46;;;;;;;70.87;42.60;;;;;;;12.72;100.00;98093.91;5052309;28;20649;-54
2022/11/17 10:14:17;;;;;;;68.53;40.87;;;;;;;12.95;100.00;98090.75;5052112;28;20291;-54
2022/11/17 10:16:46;;;;;;;65.60;40.63;;;;;;;13.06;100.00;98075.31;5052172;28;20224;-57
2022/11/17 10:19:18;;;;;;;66.03;39.90;;;;;;;13.25;100.00;98084.63;5052374;28;20254;-54
2022/11/17 10:21:50;;;;;;;66.93;39.03;;;;;;;13.36;100.00;98084.78;5052632;28;20201;-55
2022/11/17 10:24:36;;;;;;;64.73;39.17;;;;;;;13.54;100.00;98078.41;5051969;28;20589;-56
2022/11/17 10:27:05;;;;;;;64.43;40.07;;;;;;;13.65;100.00;98081.19;5051368;28;20199;-56
2022/11/17 10:29:32;;;;;;;67.73;41.13;;;;;;;13.68;100.00;98065.31;5061167;28;20253;-57
2022/11/17 10:32:00;;;;;;;63.30;39.57;;;;;;;13.79;100.00;98057.63;5071698;28;20196;-58
2022/11/17 10:34:32;;;;;;;54.70;38.37;;;;;;;13.97;100.00;98060.00;5071734;28;20203;-55
2022/11/17 10:37:06;;;;;;;53.57;35.40;;;;;;;14.10;100.00;98059.09;5072152;28;20306;-55
2022/11/17 10:39:36;;;;;;;59.73;37.23;;;;;;;14.18;100.00;98053.34;5071289;28;20218;-54
2022/11/17 10:42:22;;;;;;;55.00;35.57;;;;;;;14.19;100.00;98062.84;5071668;28;20313;-56
2022/11/17 10:44:52;;;;;;;56.93;37.20;;;;;;;14.15;100.00;98069.22;5071619;28;20695;-55
2022/11/17 10:47:28;;;;;;;54.83;36.40;;;;;;;14.05;100.00;98066.38;5071608;28;20194;-55
2022/11/17 10:50:24;;;;;;;61.57;39.87;;;;;;;14.05;100.00;98070.75;5071530;28;20228;-59
2022/11/17 10:52:54;;;;;;;58.60;39.20;;;;;;;14.09;100.00;98061.81;5071587;28;20242;-60
2022/11/17 10:55:25;;;;;;;63.87;42.93;;;;;;;14.11;100.00;98057.28;5071665;28;20287;-60
2022/11/17 10:57:56;;;;;;;95.33;65.43;;;;;;;14.15;100.00;98053.56;5071389;28;20219;-56
2022/11/17 11:00:31;;;;;;;103.67;68.43;;;;;;;14.25;100.00;98062.44;5071377;28;20501;-56
2022/11/17 11:03:07;;;;;;;73.63;47.43;;;;;;;14.32;100.00;98061.09;5071469;28;20199;-60
2022/11/17 11:05:34;;;;;;;60.77;41.83;;;;;;;14.27;100.00;98063.19;5071097;28;20206;-60
2022/11/17 11:08:21;;;;;;;59.40;39.67;;;;;;;14.29;100.00;98076.97;5071332;28;20626;-60
2022/11/17 11:10:51;;;;;;;59.80;39.03;;;;;;;14.34;100.00;98072.25;5070970;28;20206;-59
2022/11/17 11:13:25;;;;;;;60.63;39.63;;;;;;;14.42;100.00;98071.78;5071186;28;20255;-60
2022/11/17 11:15:53;;;;;;;54.57;36.20;;;;;;;14.64;100.00;98071.16;5071061;28;20203;-56
2022/11/17 11:18:20;;;;;;;53.70;35.17;;;;;;;14.62;100.00;98068.66;5070837;28;20234;-56
2022/11/17 11:20:59;;;;;;;58.73;35.37;;;;;;;14.87;100.00;98078.28;5071183;28;20227;-56
2022/11/17 11:23:39;;;;;;;53.67;34.33;;;;;;;15.05;100.00;98076.16;5070805;28;20204;-56
2022/11/17 11:26:19;;;;;;;48.90;33.87;;;;;;;15.16;100.00;98084.91;5070543;28;20192;-56
2022/11/17 11:29:00;;;;;;;47.60;32.23;;;;;;;15.29;100.00;98081.44;5070674;28;20640;-60
2022/11/17 11:31:39;;;;;;;46.97;31.17;;;;;;;15.31;100.00;98063.88;5070742;28;20202;-55
2022/11/17 11:34:17;;;;;;;46.87;31.70;;;;;;;15.34;100.00;98067.09;5070628;28;20191;-60
2022/11/17 11:36:52;;;;;;;44.20;29.97;;;;;;;15.46;100.00;98075.84;5065809;28;20200;-60
2022/11/17 11:39:34;;;;;;;46.53;29.83;;;;;;;15.48;100.00;98073.94;5053838;28;20715;-59
2022/11/17 11:42:24;;;;;;;47.47;32.17;;;;;;;15.57;100.00;98078.56;5059367;28;20215;-60
2022/11/17 11:45:14;;;;;;;46.60;33.03;;;;;;;15.64;100.00;98074.56;5056916;28;20197;-59
2022/11/17 11:48:14;;;;;;;45.83;30.83;;;;;;;15.84;100.00;98060.84;5059380;28;20610;-60